JSR weather

Jessore Airport
Jashahor, Khulna Division, Bangladesh

Public forecast

Using degrees Celsius for public forecast. Weather courtesy of forecast.io.

Closest aviation weather report (METAR) to Jessore Airport

Closest report is Netaji Subhash Chandra Bose International Airport, 50.7 nm (93.9 km) SW. Retrieved 2019/12/16 02:30 UTC (0 seconds ago):

VECC 160230Z 01004KT 2400 HZ SCT020 BKN100 19/17 Q1017 NOSIG

Closest aviation forecast (TAF) to Jessore Airport

Closest forecast is Netaji Subhash Chandra Bose International Airport, 50.7 nm (93.9 km) SW. Retrieved 2019-12-16 00:39 UTC (1 hour ago):

TAF VECC 152300Z 1600/1706 36005KT 1400 BR FEW020 SCT100 BECMG 1602/1604 2200 HZ BECMG 1605/1607 3500 -RA HZ SCT018 BKN100 BECMG 1615/1617 00000KT 2600 HZ FEW020 SCT100 BECMG 1623/1701 1800 BR NSC BECMG 1703/1705 35005KT 3200 HZ